createdAt,value
2017-12-05T00:04:05.777Z,18.00
2017-12-05T00:09:07.341Z,18.67
2017-12-05T00:14:08.842Z,19.00
2017-12-05T00:19:11.108Z,18.40
2017-12-05T00:24:12.633Z,19.30
2017-12-05T00:29:14.133Z,17.90
2017-12-05T00:34:15.585Z,19.77
2017-12-05T00:39:17.093Z,20.10
2017-12-05T00:44:19.381Z,16.80
2017-12-05T00:49:21.645Z,19.97
2017-12-05T00:54:23.198Z,19.60
2017-12-05T00:59:24.696Z,18.77
2017-12-05T01:04:26.924Z,18.03
2017-12-05T01:09:28.424Z,17.27
2017-12-05T01:14:29.946Z,18.13
2017-12-05T01:19:31.477Z,18.83
2017-12-05T01:24:33.742Z,17.93
2017-12-05T01:29:35.293Z,16.80
2017-12-05T01:34:36.805Z,19.27
2017-12-05T01:39:39.086Z,19.20
2017-12-05T01:44:41.329Z,18.37
2017-12-05T01:49:42.873Z,19.10
2017-12-05T01:54:44.416Z,18.80
2017-12-05T01:59:45.934Z,19.23
2017-12-05T02:04:47.440Z,17.70
2017-12-05T02:09:49.698Z,18.80
2017-12-05T02:14:51.259Z,19.07
2017-12-05T02:19:52.801Z,19.07
2017-12-05T02:24:54.333Z,19.47
2017-12-05T02:29:56.597Z,19.47
2017-12-05T02:34:58.156Z,19.50
2017-12-05T02:39:59.740Z,22.63
2017-12-05T02:45:01.277Z,20.37
2017-12-05T02:50:02.791Z,18.87
2017-12-05T02:55:05.040Z,20.50
2017-12-05T03:00:06.580Z,19.40
2017-12-05T03:05:08.130Z,20.37
2017-12-05T03:10:09.661Z,20.03
2017-12-05T03:15:11.224Z,19.70
2017-12-05T03:20:12.738Z,20.23
2017-12-05T03:25:14.266Z,19.00
2017-12-05T03:30:15.835Z,19.80
2017-12-05T03:35:26.186Z,21.10
2017-12-05T03:40:27.721Z,18.90
2017-12-05T03:45:29.465Z,20.43
2017-12-05T03:50:30.997Z,23.77
2017-12-05T03:55:32.516Z,22.30
2017-12-05T04:00:34.069Z,20.50
2017-12-05T04:05:36.340Z,21.83
2017-12-05T04:10:38.617Z,19.07
2017-12-05T04:15:40.159Z,20.17
2017-12-05T04:20:41.705Z,18.80
2017-12-05T04:25:43.253Z,20.53
2017-12-05T04:30:44.908Z,21.37
2017-12-05T04:35:47.195Z,20.23
2017-12-05T04:40:48.700Z,22.20
2017-12-05T04:45:50.264Z,20.03
2017-12-05T04:50:51.788Z,21.10
2017-12-05T04:55:54.049Z,23.83
2017-12-05T05:00:55.565Z,19.43
2017-12-05T05:05:57.095Z,22.83
2017-12-05T05:10:58.641Z,20.37
2017-12-05T05:16:00.173Z,22.67
2017-12-05T05:21:01.666Z,22.17
2017-12-05T05:26:03.201Z,21.40
2017-12-05T05:31:04.708Z,21.63
2017-12-05T05:36:06.252Z,21.57
2017-12-05T05:41:07.792Z,21.53
2017-12-05T05:46:09.333Z,20.50
2017-12-05T05:51:10.869Z,22.37
2017-12-05T05:56:12.406Z,20.13
2017-12-05T06:01:13.900Z,20.20
2017-12-05T06:06:15.467Z,18.70
2017-12-05T06:11:17.076Z,20.40
2017-12-05T06:16:19.399Z,18.87
2017-12-05T06:21:20.975Z,18.43
2017-12-05T06:26:22.517Z,18.80
2017-12-05T06:31:24.079Z,17.53
2017-12-05T06:36:26.354Z,18.50
2017-12-05T06:41:28.613Z,19.50
2017-12-05T06:46:30.115Z,20.50
2017-12-05T06:51:32.369Z,19.70
2017-12-05T06:56:33.911Z,17.97
2017-12-05T07:01:35.409Z,17.80
2017-12-05T07:06:36.919Z,17.20
2017-12-05T07:11:38.413Z,18.97
2017-12-05T07:16:39.918Z,17.20
2017-12-05T07:21:42.192Z,16.60
2017-12-05T07:26:44.504Z,16.77
2017-12-05T07:31:47.010Z,16.90
2017-12-05T07:36:48.528Z,16.30
2017-12-05T07:41:50.132Z,14.87
2017-12-05T07:46:51.650Z,14.73
2017-12-05T07:51:53.165Z,15.37
2017-12-05T07:56:55.392Z,15.33
2017-12-05T08:01:56.895Z,17.03
2017-12-05T08:06:58.405Z,14.40
2017-12-05T08:12:00.056Z,12.30
2017-12-05T08:17:01.547Z,13.13
2017-12-05T08:22:03.079Z,12.07
2017-12-05T08:27:05.350Z,13.33
2017-12-05T08:32:06.860Z,14.67
2017-12-05T08:37:08.411Z,13.20
2017-12-05T08:42:09.886Z,11.53
2017-12-05T08:47:11.433Z,12.70
2017-12-05T08:52:13.670Z,12.23
2017-12-05T08:57:15.400Z,12.03
2017-12-05T09:02:16.897Z,11.00
2017-12-05T09:07:25.329Z,13.57
2017-12-05T09:12:26.857Z,12.27
2017-12-05T09:17:28.351Z,12.50
2017-12-05T09:22:30.045Z,12.87
2017-12-05T09:27:31.594Z,11.23
2017-12-05T09:32:33.147Z,12.23
2017-12-05T09:37:34.649Z,11.90
2017-12-05T09:42:36.145Z,10.80
2017-12-05T09:47:37.717Z,11.07
2017-12-05T09:52:39.981Z,10.80
2017-12-05T09:57:41.494Z,10.57
2017-12-05T10:02:43.010Z,12.97
2017-12-05T10:07:44.626Z,11.73
2017-12-05T10:12:46.112Z,10.50
2017-12-05T10:17:47.592Z,12.67
2017-12-05T10:22:49.076Z,10.20
2017-12-05T10:27:50.716Z,12.83
2017-12-05T10:32:52.252Z,10.93
2017-12-05T10:37:54.513Z,12.37
2017-12-05T10:42:56.064Z,9.73
2017-12-05T10:47:57.586Z,10.27
2017-12-05T10:52:59.087Z,9.77
2017-12-05T10:58:00.617Z,9.80
2017-12-05T11:03:02.177Z,10.00
2017-12-05T11:08:03.672Z,11.53
2017-12-05T11:13:05.253Z,10.50
2017-12-05T11:18:06.764Z,13.00
2017-12-05T11:23:09.003Z,9.13
2017-12-05T11:28:10.524Z,10.00
2017-12-05T11:33:12.886Z,9.90
2017-12-05T11:38:14.428Z,10.30
2017-12-05T11:43:15.942Z,10.77
2017-12-05T11:48:18.197Z,10.43
2017-12-05T11:53:19.741Z,8.80
2017-12-05T11:58:21.248Z,9.37
2017-12-05T12:03:22.777Z,10.17
2017-12-05T12:08:24.562Z,10.47
2017-12-05T12:13:26.089Z,8.13
2017-12-05T12:18:27.600Z,9.27
2017-12-05T12:23:29.129Z,8.97
2017-12-05T12:28:30.650Z,10.10
2017-12-05T12:33:32.247Z,9.67
2017-12-05T12:38:33.801Z,10.80
2017-12-05T12:43:36.071Z,9.60
2017-12-05T12:48:37.602Z,10.83
2017-12-05T12:53:39.710Z,11.63
2017-12-05T12:58:41.278Z,11.33
2017-12-05T13:03:42.784Z,10.67
2017-12-05T13:08:44.299Z,11.57
2017-12-05T13:13:45.832Z,11.53
2017-12-05T13:18:47.350Z,10.13
2017-12-05T13:23:48.884Z,11.20
2017-12-05T13:28:50.446Z,10.40
2017-12-05T13:33:52.029Z,8.60
2017-12-05T13:38:53.569Z,8.90
2017-12-05T13:43:55.215Z,9.90
2017-12-05T13:48:57.458Z,9.43
2017-12-05T13:53:58.993Z,11.33
2017-12-05T13:59:00.660Z,10.83
2017-12-05T14:04:02.202Z,11.67
2017-12-05T14:09:04.465Z,11.27
2017-12-05T14:14:06.001Z,11.30
2017-12-05T14:19:07.514Z,11.97
2017-12-05T14:24:09.812Z,12.57
2017-12-05T14:29:12.118Z,13.40
2017-12-05T14:34:13.718Z,12.40
2017-12-05T14:39:15.214Z,13.30
2017-12-05T14:44:16.678Z,13.10
2017-12-05T14:49:18.103Z,11.27
2017-12-05T14:54:19.534Z,13.80
2017-12-05T14:59:20.974Z,10.93
2017-12-05T15:04:22.432Z,12.20
2017-12-05T15:09:23.927Z,12.73
2017-12-05T15:14:25.373Z,12.10
2017-12-05T15:19:27.005Z,11.67
2017-12-05T15:24:28.463Z,14.17
2017-12-05T15:29:29.974Z,12.97
2017-12-05T15:34:31.501Z,13.90
2017-12-05T15:39:33.042Z,13.20
2017-12-05T15:44:34.621Z,14.30
2017-12-05T15:49:36.152Z,13.50
2017-12-05T15:54:38.423Z,14.47
2017-12-05T15:59:39.970Z,14.70
2017-12-05T16:04:42.379Z,14.90
2017-12-05T16:09:44.077Z,14.37
2017-12-05T16:14:46.385Z,15.83
2017-12-05T16:19:47.904Z,13.87
2017-12-05T16:24:49.466Z,14.37
2017-12-05T16:29:51.013Z,15.77
2017-12-05T16:34:52.575Z,15.40
2017-12-05T16:39:54.285Z,17.33
2017-12-05T16:44:55.841Z,16.40
2017-12-05T16:49:58.193Z,15.57
2017-12-05T16:54:59.876Z,17.20
2017-12-05T17:00:01.397Z,17.77
2017-12-05T17:05:02.936Z,16.80
2017-12-05T17:10:04.483Z,16.03
2017-12-05T17:15:05.981Z,16.20
2017-12-05T17:20:08.265Z,17.47
2017-12-05T17:25:10.469Z,17.00
2017-12-05T17:30:11.972Z,19.20
2017-12-05T17:35:13.495Z,16.83
2017-12-05T17:40:14.958Z,17.20
2017-12-05T17:45:17.279Z,17.10
2017-12-05T17:50:18.749Z,14.87
2017-12-05T17:55:20.220Z,17.57
2017-12-05T18:00:21.768Z,14.33
2017-12-05T18:05:23.278Z,16.00
2017-12-05T18:10:24.787Z,16.37
2017-12-05T18:15:26.241Z,20.03
2017-12-05T18:20:28.414Z,18.33
2017-12-05T18:25:30.704Z,18.87
2017-12-05T18:30:32.937Z,19.27
2017-12-05T18:35:34.718Z,21.37
2017-12-05T18:40:36.424Z,18.80
2017-12-05T18:45:38.202Z,19.03
2017-12-05T18:50:39.785Z,15.67
2017-12-05T18:55:42.027Z,18.70
2017-12-05T19:00:43.553Z,14.73
2017-12-05T19:05:45.063Z,16.23
2017-12-05T19:10:46.685Z,15.30
2017-12-05T19:15:48.285Z,16.40
2017-12-05T19:20:49.915Z,17.47
2017-12-05T19:25:51.493Z,18.40
2017-12-05T19:30:53.177Z,16.47
2017-12-05T19:35:54.757Z,15.10
2017-12-05T19:40:56.284Z,17.40
2017-12-05T19:45:58.047Z,16.00
2017-12-05T19:50:59.864Z,16.83
2017-12-05T19:56:01.428Z,16.67
2017-12-05T20:01:02.991Z,17.47
2017-12-05T20:06:04.566Z,15.13
2017-12-05T20:11:06.367Z,16.87
2017-12-05T20:16:08.001Z,17.20
2017-12-05T20:21:09.541Z,16.10
2017-12-05T20:26:11.899Z,17.50
2017-12-05T20:31:13.623Z,16.43
2017-12-05T20:36:15.244Z,17.77
2017-12-05T20:41:17.624Z,16.43
2017-12-05T20:46:19.435Z,17.53
2017-12-05T20:51:20.932Z,17.30
2017-12-05T20:56:22.470Z,18.73
2017-12-05T21:01:24.042Z,18.33
2017-12-05T21:06:25.713Z,18.13
2017-12-05T21:11:27.351Z,16.57
2017-12-05T21:16:29.656Z,16.73
2017-12-05T21:21:32.075Z,19.77
2017-12-05T21:26:33.610Z,19.70
2017-12-05T21:31:35.978Z,18.43
2017-12-05T21:36:37.580Z,20.40
2017-12-05T21:41:39.235Z,20.37
2017-12-05T21:46:40.830Z,19.67
2017-12-05T21:51:42.346Z,20.37
2017-12-05T21:56:43.896Z,18.03
2017-12-05T22:01:45.440Z,17.00
2017-12-05T22:06:47.024Z,19.23
2017-12-05T22:11:48.638Z,19.83
2017-12-05T22:16:50.961Z,18.13
2017-12-05T22:21:52.500Z,17.33
2017-12-05T22:26:54.770Z,17.50
2017-12-05T22:31:57.087Z,18.20
2017-12-05T22:36:58.670Z,20.50
2017-12-05T22:42:00.222Z,19.47
2017-12-05T22:47:01.770Z,17.80
2017-12-05T22:52:04.049Z,19.27
2017-12-05T22:57:06.358Z,16.47
2017-12-05T23:02:07.861Z,16.83
2017-12-05T23:07:09.377Z,18.03
2017-12-05T23:12:11.678Z,18.53
2017-12-05T23:17:13.166Z,18.03
2017-12-05T23:22:14.685Z,18.47
2017-12-05T23:27:16.945Z,17.97
2017-12-05T23:32:18.454Z,17.73
2017-12-05T23:37:20.707Z,20.20
2017-12-05T23:42:22.222Z,15.57
2017-12-05T23:47:23.754Z,17.97
2017-12-05T23:52:25.249Z,17.43
2017-12-05T23:57:26.756Z,17.53
